createdAt,value
2019-04-22T00:00:59.503Z,59.25
2019-04-22T00:03:39.861Z,59.36
2019-04-22T00:06:29.325Z,59.63
2019-04-22T00:08:55.528Z,59.92
2019-04-22T00:11:29.300Z,60.32
2019-04-22T00:13:56.973Z,60.59
2019-04-22T00:16:35.990Z,60.71
2019-04-22T00:21:33.284Z,61.05
2019-04-22T00:23:59.069Z,61.22
2019-04-22T00:29:12.653Z,61.75
2019-04-22T00:31:38.172Z,61.86
2019-04-22T00:34:06.827Z,62.12
2019-04-22T00:36:35.262Z,62.32
2019-04-22T00:39:07.213Z,62.38
2019-04-22T00:41:43.399Z,62.42
2019-04-22T00:44:12.285Z,62.57
2019-04-22T00:46:39.401Z,62.64
2019-04-22T00:49:52.904Z,62.74
2019-04-22T00:51:48.235Z,62.94
2019-04-22T00:54:08.610Z,63.06
2019-04-22T00:56:42.149Z,63.20
2019-04-22T00:59:14.381Z,63.22
2019-04-22T01:01:36.971Z,63.19
2019-04-22T01:06:38.519Z,63.26
2019-04-22T01:09:10.915Z,63.35
2019-04-22T01:11:37.591Z,63.61
2019-04-22T01:14:15.754Z,63.80
2019-04-22T01:16:42.684Z,63.81
2019-04-22T01:19:16.625Z,64.11
2019-04-22T01:24:09.159Z,64.18
2019-04-22T01:26:38.904Z,64.43
2019-04-22T01:29:05.364Z,64.43
2019-04-22T01:31:29.351Z,64.79
2019-04-22T01:34:10.024Z,64.91
2019-04-22T01:36:51.483Z,64.91
2019-04-22T01:39:36.298Z,65.09
2019-04-22T01:41:55.192Z,65.09
2019-04-22T01:46:49.428Z,64.97
2019-04-22T01:49:25.840Z,65.54
2019-04-22T01:52:01.467Z,65.64
2019-04-22T01:54:29.916Z,65.56
2019-04-22T01:56:53.973Z,65.56
2019-04-22T01:59:15.682Z,65.84
2019-04-22T02:04:30.148Z,65.71
2019-04-22T02:07:00.153Z,65.77
2019-04-22T02:09:31.686Z,65.83
2019-04-22T02:12:00.184Z,65.93
2019-04-22T02:14:31.578Z,66.03
2019-04-22T02:17:06.488Z,66.90
2019-04-22T02:19:30.744Z,66.90
2019-04-22T02:21:56.193Z,66.65
2019-04-22T02:24:35.291Z,66.84
2019-04-22T02:26:54.591Z,66.84
2019-04-22T02:29:29.988Z,66.96
2019-04-22T02:34:40.061Z,67.65
2019-04-22T02:37:03.147Z,68.68
2019-04-22T02:42:10.747Z,68.21
2019-04-22T02:44:40.851Z,67.99
2019-04-22T02:49:37.316Z,68.41
2019-04-22T02:52:20.478Z,67.96
2019-04-22T02:57:22.774Z,68.67
2019-04-22T02:59:50.248Z,68.79
2019-04-22T03:02:14.373Z,68.42
2019-04-22T03:04:44.011Z,68.34
2019-04-22T03:07:10.837Z,68.26
2019-04-22T03:09:38.535Z,68.47
2019-04-22T03:12:29.074Z,68.65
2019-04-22T03:17:20.661Z,68.44
2019-04-22T03:22:30.155Z,68.75
2019-04-22T03:24:54.247Z,68.96
2019-04-22T03:27:15.751Z,69.05
2019-04-22T03:37:49.147Z,69.13
2019-04-22T03:40:18.258Z,69.18
2019-04-22T03:42:48.577Z,69.16
2019-04-22T03:45:19.302Z,69.26
2019-04-22T03:47:41.209Z,69.21
2019-04-22T03:50:22.661Z,69.31
2019-04-22T03:52:43.065Z,69.24
2019-04-22T03:57:55.937Z,69.50
2019-04-22T04:05:32.249Z,70.92
2019-04-22T04:07:49.097Z,71.83
2019-04-22T04:10:19.501Z,72.29
2019-04-22T04:20:28.621Z,72.23
2019-04-22T04:30:26.474Z,70.81
2019-04-22T04:33:05.141Z,70.44
2019-04-22T04:35:28.081Z,70.23
2019-04-22T04:37:55.652Z,70.10
2019-04-22T04:40:23.174Z,70.11
2019-04-22T04:42:52.415Z,70.29
2019-04-22T04:45:38.226Z,70.30
2019-04-22T04:50:17.723Z,69.94
2019-04-22T04:55:23.085Z,69.52
2019-04-22T05:05:18.196Z,66.69
2019-04-22T05:15:18.467Z,65.66
2019-04-22T05:17:55.506Z,65.99
2019-04-22T05:20:21.495Z,65.99
2019-04-22T05:22:44.681Z,65.58
2019-04-22T05:25:17.824Z,65.50
2019-04-22T05:32:47.601Z,65.16
2019-04-22T05:35:14.470Z,65.19
2019-04-22T05:37:50.605Z,65.08
2019-04-22T05:40:22.001Z,64.99
2019-04-22T05:42:46.322Z,64.85
2019-04-22T05:45:17.631Z,65.08
2019-04-22T05:47:46.170Z,65.08
2019-04-22T05:52:49.821Z,64.71
2019-04-22T05:55:25.151Z,64.34
2019-04-22T05:57:51.181Z,63.99
2019-04-22T06:00:25.620Z,63.35
2019-04-22T06:05:28.479Z,62.27
2019-04-22T06:07:52.500Z,62.19
2019-04-22T06:10:31.072Z,61.68
2019-04-22T06:12:55.312Z,61.24
2019-04-22T06:15:23.396Z,60.74
2019-04-22T06:18:07.712Z,60.31
2019-04-22T06:20:32.568Z,59.80
2019-04-22T06:23:00.289Z,59.62
2019-04-22T06:25:40.669Z,59.21
2019-04-22T06:28:04.888Z,58.90
2019-04-22T06:30:34.639Z,58.70
2019-04-22T06:33:00.835Z,58.66
2019-04-22T06:38:22.460Z,58.22
2019-04-22T06:43:10.233Z,58.22
2019-04-22T06:45:33.772Z,58.17
2019-04-22T06:48:08.388Z,58.17
2019-04-22T06:50:43.463Z,58.00
2019-04-22T06:58:07.657Z,55.21
2019-04-22T07:00:36.644Z,54.57
2019-04-22T07:03:30.156Z,54.02
2019-04-22T07:05:42.040Z,53.52
2019-04-22T07:08:30.351Z,53.04
2019-04-22T07:10:50.634Z,52.93
2019-04-22T07:13:11.650Z,52.33
2019-04-22T07:18:11.124Z,51.55
2019-04-22T07:20:48.067Z,50.36
2019-04-22T07:23:13.615Z,49.96
2019-04-22T07:25:41.387Z,48.99
2019-04-22T07:28:14.276Z,48.17
2019-04-22T07:30:41.039Z,48.11
2019-04-22T07:33:22.546Z,47.42
2019-04-22T07:38:18.646Z,46.34
2019-04-22T07:40:43.316Z,46.10
2019-04-22T07:43:19.996Z,45.69
2019-04-22T07:45:44.243Z,45.52
2019-04-22T07:50:55.724Z,45.20
2019-04-22T07:53:14.373Z,45.13
2019-04-22T07:55:45.360Z,45.35
2019-04-22T07:58:18.646Z,45.26
2019-04-22T08:00:53.549Z,44.98
2019-04-22T08:03:20.874Z,44.84
2019-04-22T08:06:02.934Z,44.43
2019-04-22T08:08:26.050Z,44.52
2019-04-22T08:10:52.290Z,44.26
2019-04-22T08:13:24.793Z,44.08
2019-04-22T08:15:53.653Z,43.31
2019-04-22T08:18:22.146Z,42.58
2019-04-22T08:20:55.381Z,42.16
2019-04-22T08:23:24.494Z,41.34
2019-04-22T08:25:56.761Z,41.17
2019-04-22T08:28:25.618Z,41.21
2019-04-22T08:30:56.671Z,40.83
2019-04-22T08:33:29.077Z,40.66
2019-04-22T08:36:06.890Z,40.79
2019-04-22T08:38:35.377Z,40.66
2019-04-22T08:41:22.999Z,40.54
2019-04-22T08:46:17.070Z,40.22
2019-04-22T08:48:44.500Z,40.28
2019-04-22T08:51:18.509Z,40.16
2019-04-22T08:53:48.520Z,39.98
2019-04-22T08:56:29.898Z,39.43
2019-04-22T08:58:50.848Z,38.89
2019-04-22T09:01:17.442Z,38.59
2019-04-22T09:03:47.098Z,38.56
2019-04-22T09:06:22.382Z,37.63
2019-04-22T09:08:48.726Z,37.68
2019-04-22T09:11:19.858Z,36.88
2019-04-22T09:13:50.474Z,36.87
2019-04-22T09:16:19.336Z,36.58
2019-04-22T09:18:51.080Z,36.12
2019-04-22T09:23:54.047Z,36.14
2019-04-22T09:26:23.908Z,36.41
2019-04-22T09:28:54.524Z,36.62
2019-04-22T09:31:19.645Z,36.80
2019-04-22T09:33:50.406Z,36.50
2019-04-22T09:38:50.637Z,36.00
2019-04-22T09:41:20.241Z,35.45
2019-04-22T09:43:58.306Z,35.56
2019-04-22T09:46:32.777Z,35.17
2019-04-22T09:49:00.379Z,35.45
2019-04-22T09:51:26.873Z,35.88
2019-04-22T09:54:00.988Z,35.60
2019-04-22T09:58:58.509Z,35.05
2019-04-22T10:01:30.754Z,35.37
2019-04-22T10:04:00.969Z,35.43
2019-04-22T10:09:12.739Z,35.64
2019-04-22T10:14:12.437Z,35.87
2019-04-22T10:16:35.411Z,35.96
2019-04-22T10:18:59.278Z,35.95
2019-04-22T10:26:33.513Z,36.07
2019-04-22T10:29:09.092Z,35.89
2019-04-22T10:33:53.251Z,35.24
2019-04-22T10:36:07.879Z,34.96
2019-04-22T10:38:36.802Z,35.29
2019-04-22T10:41:05.380Z,35.00
2019-04-22T10:43:34.940Z,34.71
2019-04-22T10:46:04.142Z,34.38
2019-04-22T10:48:34.554Z,34.54
2019-04-22T10:51:04.580Z,35.07
2019-04-22T10:53:33.466Z,35.34
2019-04-22T10:56:07.071Z,35.20
2019-04-22T10:58:42.495Z,35.21
2019-04-22T11:01:13.674Z,35.64
2019-04-22T11:03:43.321Z,35.38
2019-04-22T11:06:11.911Z,34.75
2019-04-22T11:08:48.651Z,34.51
2019-04-22T11:11:29.310Z,34.38
2019-04-22T11:13:42.128Z,34.21
2019-04-22T11:16:11.645Z,34.46
2019-04-22T11:18:41.256Z,34.63
2019-04-22T11:21:09.892Z,34.33
2019-04-22T11:23:40.686Z,34.52
2019-04-22T11:26:15.510Z,34.57
2019-04-22T11:28:45.487Z,34.58
2019-04-22T11:31:14.706Z,34.71
2019-04-22T11:33:44.759Z,34.68
2019-04-22T11:36:13.707Z,34.73
2019-04-22T11:38:48.617Z,34.50
2019-04-22T11:41:14.682Z,34.62
2019-04-22T11:43:45.158Z,34.27
2019-04-22T11:46:15.541Z,34.25
2019-04-22T11:48:45.572Z,34.27
2019-04-22T11:51:15.845Z,33.86
2019-04-22T11:53:45.094Z,33.89
2019-04-22T11:56:13.633Z,34.15
2019-04-22T11:58:42.657Z,34.52
2019-04-22T12:01:12.789Z,33.99
2019-04-22T12:03:41.973Z,33.69
2019-04-22T12:06:10.659Z,33.33
2019-04-22T12:08:39.692Z,33.20
2019-04-22T12:11:09.802Z,33.47
2019-04-22T12:13:39.942Z,33.80
2019-04-22T12:16:09.398Z,33.78
2019-04-22T12:18:39.611Z,33.86
2019-04-22T12:21:08.946Z,33.82
2019-04-22T12:23:39.077Z,33.46
2019-04-22T12:26:13.101Z,33.58
2019-04-22T12:28:39.354Z,33.71
2019-04-22T12:31:09.250Z,33.49
2019-04-22T12:33:39.291Z,33.48
2019-04-22T12:36:10.880Z,33.29
2019-04-22T12:38:39.993Z,33.03
2019-04-22T12:41:11.677Z,33.14
2019-04-22T12:43:39.056Z,33.11
2019-04-22T12:46:07.974Z,33.20
2019-04-22T12:48:37.088Z,33.41
2019-04-22T12:51:07.031Z,33.43
2019-04-22T12:53:36.176Z,32.73
2019-04-22T12:56:05.111Z,32.78
2019-04-22T12:58:33.907Z,32.82
2019-04-22T13:01:03.299Z,32.97
2019-04-22T13:03:32.128Z,32.86
2019-04-22T13:06:01.607Z,33.00
2019-04-22T13:08:31.618Z,32.76
2019-04-22T13:11:06.806Z,32.76
2019-04-22T13:13:31.326Z,32.69
2019-04-22T13:16:00.054Z,32.66
2019-04-22T13:18:37.445Z,32.72
2019-04-22T13:21:00.216Z,32.65
2019-04-22T13:23:29.843Z,32.64
2019-04-22T13:25:59.069Z,32.79
2019-04-22T13:28:29.176Z,32.96
2019-04-22T13:31:01.676Z,33.06
2019-04-22T13:33:28.702Z,32.84
2019-04-22T13:35:57.646Z,32.99
2019-04-22T13:38:27.004Z,33.25
2019-04-22T13:41:09.750Z,32.91
2019-04-22T13:43:27.018Z,32.84
2019-04-22T13:45:56.201Z,32.47
2019-04-22T13:48:46.283Z,32.09
2019-04-22T13:51:32.461Z,32.35
2019-04-22T13:54:14.395Z,31.92
2019-04-22T13:56:13.667Z,32.10
2019-04-22T13:58:40.977Z,32.15
2019-04-22T14:00:58.576Z,32.51
2019-04-22T14:03:36.094Z,32.88
2019-04-22T14:06:06.880Z,33.01
2019-04-22T14:08:35.459Z,32.80
2019-04-22T14:11:16.873Z,32.48
2019-04-22T14:13:34.319Z,32.37
2019-04-22T14:16:02.836Z,32.49
2019-04-22T14:18:32.754Z,32.31
2019-04-22T14:21:02.825Z,32.18
2019-04-22T14:23:32.945Z,32.45
2019-04-22T14:26:01.887Z,32.65
2019-04-22T14:28:31.262Z,32.86
2019-04-22T14:31:00.574Z,32.96
2019-04-22T14:33:30.072Z,32.73
2019-04-22T14:36:00.477Z,32.27
2019-04-22T14:38:30.261Z,31.68
2019-04-22T14:41:00.547Z,31.47
2019-04-22T14:44:00.165Z,31.44
2019-04-22T14:46:39.006Z,31.55
2019-04-22T14:48:49.654Z,31.80
2019-04-22T14:51:15.998Z,31.93
2019-04-22T14:53:44.936Z,32.50
2019-04-22T14:56:02.156Z,32.52
2019-04-22T14:58:31.178Z,31.91
2019-04-22T15:01:01.212Z,31.76
2019-04-22T15:03:41.900Z,32.01
2019-04-22T15:06:08.522Z,32.37
2019-04-22T15:08:37.241Z,32.63
2019-04-22T15:11:06.331Z,32.69
2019-04-22T15:13:35.640Z,32.24
2019-04-22T15:16:11.974Z,32.05
2019-04-22T15:18:47.664Z,31.78
2019-04-22T15:21:18.683Z,31.47
2019-04-22T15:23:48.424Z,31.63
2019-04-22T15:26:17.184Z,31.80
2019-04-22T15:28:49.380Z,31.88
2019-04-22T15:31:17.900Z,31.58
2019-04-22T15:33:50.229Z,31.13
2019-04-22T15:36:18.086Z,30.74
2019-04-22T15:38:47.198Z,30.93
2019-04-22T15:41:16.689Z,31.06
2019-04-22T15:43:45.723Z,31.17
2019-04-22T15:46:15.805Z,31.49
2019-04-22T15:48:44.494Z,31.84
2019-04-22T15:51:13.183Z,32.32
2019-04-22T15:53:41.689Z,32.88
2019-04-22T15:56:10.547Z,33.26
2019-04-22T15:58:39.631Z,33.60
2019-04-22T16:01:16.196Z,34.04
2019-04-22T16:03:38.737Z,34.47
2019-04-22T16:06:08.312Z,34.77
2019-04-22T16:08:39.127Z,35.02
2019-04-22T16:11:07.205Z,35.43
2019-04-22T16:13:38.211Z,35.64
2019-04-22T16:16:06.883Z,35.71
2019-04-22T16:18:36.164Z,35.83
2019-04-22T16:21:05.009Z,35.88
2019-04-22T16:23:52.076Z,35.81
2019-04-22T16:26:22.420Z,35.39
2019-04-22T16:28:53.733Z,35.29
2019-04-22T16:31:21.829Z,35.32
2019-04-22T16:33:56.316Z,35.39
2019-04-22T16:36:31.058Z,35.55
2019-04-22T16:39:00.558Z,35.39
2019-04-22T16:41:30.654Z,34.63
2019-04-22T16:44:00.769Z,33.64
2019-04-22T16:46:30.020Z,33.31
2019-04-22T16:49:01.557Z,33.23
2019-04-22T16:51:30.166Z,33.34
2019-04-22T16:54:00.012Z,32.88
2019-04-22T16:56:32.196Z,31.63
2019-04-22T16:59:00.945Z,31.02
2019-04-22T17:01:43.299Z,30.70
2019-04-22T17:04:20.785Z,30.30
2019-04-22T17:06:51.049Z,29.88
2019-04-22T17:09:21.519Z,29.90
2019-04-22T17:11:52.007Z,29.98
2019-04-22T17:14:30.495Z,29.82
2019-04-22T17:16:52.846Z,29.88
2019-04-22T17:19:21.785Z,29.91
2019-04-22T17:21:51.386Z,30.02
2019-04-22T17:24:21.530Z,30.21
2019-04-22T17:26:56.592Z,30.47
2019-04-22T17:29:26.329Z,30.72
2019-04-22T17:32:00.441Z,31.31
2019-04-22T17:34:25.554Z,31.74
2019-04-22T17:36:55.270Z,32.01
2019-04-22T17:39:35.995Z,32.47
2019-04-22T17:42:14.061Z,32.97
2019-04-22T17:44:48.391Z,33.42
2019-04-22T17:47:29.752Z,33.88
2019-04-22T17:50:08.646Z,34.29
2019-04-22T17:52:59.583Z,34.80
2019-04-22T17:54:58.764Z,35.34
2019-04-22T17:57:32.522Z,36.19
2019-04-22T18:00:01.539Z,36.96
2019-04-22T18:02:26.611Z,37.53
2019-04-22T18:04:52.026Z,38.04
2019-04-22T18:07:49.326Z,38.59
2019-04-22T18:10:27.110Z,38.89
2019-04-22T18:12:44.167Z,39.26
2019-04-22T18:15:09.986Z,39.64
2019-04-22T18:17:41.399Z,39.96
2019-04-22T18:20:07.134Z,40.30
2019-04-22T18:22:33.098Z,40.54
2019-04-22T18:25:00.919Z,40.81
2019-04-22T18:27:48.467Z,41.20
2019-04-22T18:30:04.045Z,41.61
2019-04-22T18:32:38.037Z,41.96
2019-04-22T18:35:09.807Z,42.31
2019-04-22T18:37:46.881Z,42.61
2019-04-22T18:40:08.556Z,42.95
2019-04-22T18:42:46.284Z,43.38
2019-04-22T18:45:29.632Z,43.60
2019-04-22T18:47:43.688Z,43.86
2019-04-22T18:50:24.679Z,44.08
2019-04-22T18:53:03.615Z,44.37
2019-04-22T18:55:30.869Z,44.64
2019-04-22T18:58:02.651Z,44.76
2019-04-22T19:00:27.512Z,44.97
2019-04-22T19:03:05.274Z,45.15
2019-04-22T19:05:45.064Z,45.35
2019-04-22T19:08:26.353Z,45.62
2019-04-22T19:11:00.715Z,45.81
2019-04-22T19:16:20.560Z,46.23
2019-04-22T19:18:29.947Z,46.52
2019-04-22T19:20:57.744Z,46.60
2019-04-22T19:23:28.687Z,46.79
2019-04-22T19:25:52.330Z,46.98
2019-04-22T19:28:29.083Z,47.11
2019-04-22T19:31:05.003Z,47.22
2019-04-22T19:33:28.810Z,47.43
2019-04-22T19:35:55.210Z,47.59
2019-04-22T19:38:16.435Z,47.70
2019-04-22T19:43:30.825Z,48.04
2019-04-22T19:45:55.741Z,48.25
2019-04-22T19:48:54.676Z,48.46
2019-04-22T19:51:15.724Z,48.65
2019-04-22T19:53:47.110Z,48.74
2019-04-22T19:56:07.186Z,48.94
2019-04-22T19:58:37.265Z,49.06
2019-04-22T20:01:20.656Z,49.28
2019-04-22T20:04:08.729Z,49.39
2019-04-22T20:06:41.352Z,49.55
2019-04-22T20:09:13.953Z,49.78
2019-04-22T20:11:38.648Z,49.85
2019-04-22T20:14:19.807Z,49.99
2019-04-22T20:16:43.811Z,50.14
2019-04-22T20:19:31.874Z,50.38
2019-04-22T20:21:51.255Z,50.62
2019-04-22T20:24:12.297Z,50.84
2019-04-22T20:26:56.584Z,51.03
2019-04-22T20:29:32.925Z,51.23
2019-04-22T20:31:53.088Z,51.38
2019-04-22T20:34:23.987Z,51.57
2019-04-22T20:39:33.496Z,51.98
2019-04-22T20:42:05.651Z,52.17
2019-04-22T20:44:29.479Z,52.30
2019-04-22T20:46:56.180Z,52.37
2019-04-22T20:49:30.887Z,52.60
2019-04-22T20:52:24.047Z,52.74
2019-04-22T20:54:32.519Z,52.88
2019-04-22T20:56:56.406Z,52.95
2019-04-22T20:59:28.162Z,53.00
2019-04-22T21:02:00.664Z,53.20
2019-04-22T21:04:22.173Z,53.22
2019-04-22T21:07:00.900Z,53.36
2019-04-22T21:09:35.550Z,53.46
2019-04-22T21:11:56.557Z,53.58
2019-04-22T21:14:23.250Z,53.59
2019-04-22T21:17:00.709Z,53.71
2019-04-22T21:19:40.230Z,53.90
2019-04-22T21:22:06.014Z,54.02
2019-04-22T21:24:32.905Z,54.30
2019-04-22T21:27:10.158Z,54.42
2019-04-22T21:29:34.719Z,54.51
2019-04-22T21:32:09.042Z,54.68
2019-04-22T21:34:43.653Z,54.79
2019-04-22T21:37:14.044Z,54.93
2019-04-22T21:39:36.623Z,55.14
2019-04-22T21:42:12.734Z,55.30
2019-04-22T21:44:38.124Z,55.45
2019-04-22T21:47:14.693Z,55.62
2019-04-22T21:49:45.891Z,55.80
2019-04-22T21:52:13.508Z,55.92
2019-04-22T21:54:47.042Z,56.04
2019-04-22T21:57:26.571Z,56.04
2019-04-22T21:59:57.941Z,56.01
2019-04-22T22:02:28.139Z,55.90
2019-04-22T22:04:52.991Z,55.85
2019-04-22T22:07:13.632Z,55.74
2019-04-22T22:09:54.254Z,55.62
2019-04-22T22:12:24.659Z,55.62
2019-04-22T22:14:57.670Z,55.61
2019-04-22T22:17:25.278Z,55.53
2019-04-22T22:19:54.422Z,55.54
2019-04-22T22:22:41.791Z,55.52
2019-04-22T22:25:00.035Z,55.61
2019-04-22T22:27:30.073Z,55.70
2019-04-22T22:30:24.884Z,55.81
2019-04-22T22:32:30.017Z,55.90
2019-04-22T22:35:03.847Z,55.84
2019-04-22T22:37:22.049Z,56.04
2019-04-22T22:39:52.883Z,56.19
2019-04-22T22:42:23.801Z,56.35
2019-04-22T22:44:47.760Z,56.39
2019-04-22T22:47:31.893Z,56.46
2019-04-22T22:50:03.021Z,56.62
2019-04-22T22:55:06.972Z,56.75
2019-04-22T22:57:46.476Z,56.72
2019-04-22T22:59:58.663Z,56.81
2019-04-22T23:02:36.913Z,56.90
2019-04-22T23:05:04.041Z,56.94
2019-04-22T23:07:38.982Z,57.01
2019-04-22T23:10:10.065Z,57.21
2019-04-22T23:12:46.316Z,57.21
2019-04-22T23:15:04.658Z,57.22
2019-04-22T23:17:21.410Z,57.40
2019-04-22T23:19:51.642Z,57.41
2019-04-22T23:22:22.975Z,57.50
2019-04-22T23:25:14.970Z,57.52
2019-04-22T23:27:38.756Z,57.67
2019-04-22T23:30:06.531Z,57.78
2019-04-22T23:32:42.350Z,57.95
2019-04-22T23:35:22.931Z,58.04
2019-04-22T23:37:52.362Z,58.04
2019-04-22T23:40:33.158Z,58.13
2019-04-22T23:43:00.249Z,58.12
2019-04-22T23:45:34.876Z,58.20
2019-04-22T23:48:00.925Z,58.24
2019-04-22T23:50:37.550Z,58.22
2019-04-22T23:53:10.081Z,58.46
2019-04-22T23:55:45.022Z,58.50
2019-04-22T23:58:21.098Z,58.70
